createdAt,value
2023-12-28T00:00:55.181Z,95981.69
2023-12-28T00:03:44.859Z,95995.84
2023-12-28T00:06:34.791Z,95997.19
2023-12-28T00:09:29.298Z,96002.19
2023-12-28T00:12:21.251Z,96003.53
2023-12-28T00:15:11.250Z,96011.03
2023-12-28T00:18:02.267Z,96017.75
2023-12-28T00:20:50.962Z,96014.63
2023-12-28T00:23:38.601Z,96015.72
2023-12-28T00:26:24.634Z,96020.09
2023-12-28T00:29:12.013Z,96021.91
2023-12-28T00:32:03.308Z,96012.22
2023-12-28T00:34:55.150Z,96017.63
2023-12-28T00:37:41.091Z,96011.19
2023-12-28T00:40:31.702Z,96014.69
2023-12-28T00:43:18.932Z,96011.28
2023-12-28T00:46:05.351Z,96013.03
2023-12-28T00:48:56.105Z,96022.34
2023-12-28T00:51:42.987Z,96020.47
2023-12-28T00:54:35.668Z,96031.16
2023-12-28T00:57:27.251Z,96029.03
2023-12-28T01:00:16.611Z,96035.47
2023-12-28T01:03:03.113Z,96029.34
2023-12-28T01:05:55.744Z,96030.25
2023-12-28T01:08:44.075Z,96033.19
2023-12-28T01:11:34.580Z,96032.63
2023-12-28T01:14:20.598Z,96037.84
2023-12-28T01:17:07.129Z,96035.56
2023-12-28T01:19:59.063Z,96030.50
2023-12-28T01:22:51.729Z,96032.81
2023-12-28T01:25:41.662Z,96027.50
2023-12-28T01:28:34.508Z,96036.66
2023-12-28T01:31:19.261Z,96016.44
2023-12-28T01:34:11.368Z,96034.78
2023-12-28T01:36:58.736Z,96032.22
2023-12-28T01:39:50.453Z,96023.47
2023-12-28T01:42:37.551Z,96016.91
2023-12-28T01:45:28.893Z,96017.84
2023-12-28T01:48:22.987Z,96019.75
2023-12-28T01:51:09.451Z,96016.75
2023-12-28T01:54:00.838Z,96017.25
2023-12-28T01:56:52.932Z,96014.09
2023-12-28T01:59:43.010Z,96018.22
2023-12-28T02:02:32.195Z,96015.09
2023-12-28T02:05:23.478Z,96010.19
2023-12-28T02:08:11.194Z,96007.84
2023-12-28T02:11:01.339Z,96014.63
2023-12-28T02:13:49.213Z,96001.13
2023-12-28T02:16:42.121Z,96008.59
2023-12-28T02:19:47.264Z,96009.34
2023-12-28T02:22:35.375Z,96008.06
2023-12-28T02:25:25.539Z,96013.59
2023-12-28T02:28:10.786Z,96009.91
2023-12-28T02:31:01.435Z,96015.31
2023-12-28T02:33:56.203Z,96010.59
2023-12-28T02:36:47.748Z,96009.56
2023-12-28T02:39:37.221Z,96017.59
2023-12-28T02:42:32.098Z,96020.75
2023-12-28T02:45:21.250Z,96008.81
2023-12-28T02:48:09.851Z,96011.41
2023-12-28T02:50:59.587Z,96019.41
2023-12-28T02:53:46.942Z,96007.44
2023-12-28T02:56:36.026Z,96010.69
2023-12-28T02:59:27.648Z,96008.38
2023-12-28T03:02:15.354Z,95998.81
2023-12-28T03:04:59.486Z,96003.13
2023-12-28T03:07:49.730Z,95992.88
2023-12-28T03:10:39.474Z,95991.81
2023-12-28T03:13:29.892Z,95994.28
2023-12-28T03:16:24.212Z,95995.59
2023-12-28T03:19:11.187Z,95988.03
2023-12-28T03:21:59.522Z,95990.31
2023-12-28T03:24:49.947Z,95990.72
2023-12-28T03:27:39.417Z,95986.00
2023-12-28T03:30:29.641Z,95985.59
2023-12-28T03:33:21.056Z,95980.53
2023-12-28T03:36:08.907Z,95976.50
2023-12-28T03:38:57.794Z,95993.72
2023-12-28T03:41:47.559Z,96008.03
2023-12-28T03:44:33.736Z,96008.81
2023-12-28T03:47:25.695Z,96015.56
2023-12-28T03:50:14.335Z,96021.78
2023-12-28T03:53:00.844Z,96015.16
2023-12-28T03:55:48.194Z,96024.19
2023-12-28T03:58:36.224Z,96042.25
2023-12-28T04:01:27.428Z,96041.56
2023-12-28T04:04:16.631Z,96034.97
2023-12-28T04:07:09.343Z,96025.53
2023-12-28T04:09:59.719Z,96033.22
2023-12-28T04:12:50.381Z,96029.72
2023-12-28T04:15:37.910Z,96025.94
2023-12-28T04:18:21.811Z,96025.25
2023-12-28T04:21:14.374Z,96030.09
2023-12-28T04:24:05.655Z,96026.44
2023-12-28T04:26:56.960Z,96025.59
2023-12-28T04:29:44.801Z,96027.59
2023-12-28T04:32:37.049Z,96024.59
2023-12-28T04:35:30.067Z,96017.59
2023-12-28T04:38:19.373Z,96014.88
2023-12-28T04:41:06.524Z,96011.72
2023-12-28T04:43:55.168Z,96015.63
2023-12-28T04:46:47.343Z,96016.00
2023-12-28T04:49:36.829Z,96012.88
2023-12-28T04:52:27.960Z,96013.28
2023-12-28T04:55:16.890Z,96003.13
2023-12-28T04:58:06.935Z,96006.41
2023-12-28T05:00:55.648Z,96013.44
2023-12-28T05:03:42.179Z,96010.72
2023-12-28T05:06:35.876Z,96016.91
2023-12-28T05:09:21.212Z,96013.81
2023-12-28T05:12:07.217Z,96022.91
2023-12-28T05:15:01.360Z,96021.31
2023-12-28T05:17:50.768Z,96018.41
2023-12-28T05:20:43.757Z,96028.84
2023-12-28T05:23:28.249Z,96034.66
2023-12-28T05:26:16.859Z,96032.50
2023-12-28T05:29:04.655Z,96031.72
2023-12-28T05:31:55.346Z,96028.47
2023-12-28T05:34:43.533Z,96035.63
2023-12-28T05:37:34.658Z,96036.59
2023-12-28T05:40:23.437Z,96040.88
2023-12-28T05:43:09.035Z,96050.59
2023-12-28T05:45:58.814Z,96053.53
2023-12-28T05:48:44.559Z,96056.50
2023-12-28T05:51:31.410Z,96055.94
2023-12-28T05:54:22.184Z,96053.09
2023-12-28T05:57:11.375Z,96052.72
2023-12-28T06:00:01.413Z,96065.88
2023-12-28T06:02:48.654Z,96062.13
2023-12-28T06:05:36.295Z,96068.19
2023-12-28T06:08:21.071Z,96057.94
2023-12-28T06:11:07.744Z,96056.97
2023-12-28T06:13:54.788Z,96053.88
2023-12-28T06:16:40.372Z,96066.63
2023-12-28T06:19:29.286Z,96065.28
2023-12-28T06:22:19.255Z,96065.97
2023-12-28T06:25:07.343Z,96069.09
2023-12-28T06:27:57.502Z,96063.44
2023-12-28T06:30:44.003Z,96067.53
2023-12-28T06:33:34.033Z,96063.25
2023-12-28T06:36:22.662Z,96070.91
2023-12-28T06:39:11.683Z,96064.84
2023-12-28T06:41:58.037Z,96074.00
2023-12-28T06:44:47.423Z,96081.28
2023-12-28T06:47:32.520Z,96086.66
2023-12-28T06:50:20.702Z,96085.31
2023-12-28T06:53:12.792Z,96091.53
2023-12-28T06:56:01.726Z,96084.50
2023-12-28T06:58:51.051Z,96079.78
2023-12-28T07:01:41.812Z,96081.66
2023-12-28T07:04:31.389Z,96078.50
2023-12-28T07:07:19.845Z,96080.28
2023-12-28T07:10:04.176Z,96079.88
2023-12-28T07:12:55.334Z,96071.75
2023-12-28T07:15:45.096Z,96064.91
2023-12-28T07:18:34.070Z,96063.09
2023-12-28T07:21:22.182Z,96066.28
2023-12-28T07:24:11.106Z,96058.66
2023-12-28T07:27:01.452Z,96058.38
2023-12-28T07:29:54.224Z,96055.31
2023-12-28T07:32:40.586Z,96057.38
2023-12-28T07:35:30.636Z,96059.00
2023-12-28T07:38:17.522Z,96064.13
2023-12-28T07:41:05.024Z,96062.97
2023-12-28T07:43:54.208Z,96070.31
2023-12-28T07:46:43.886Z,96059.94
2023-12-28T07:49:32.499Z,96061.81
2023-12-28T07:52:19.770Z,96055.63
2023-12-28T07:55:07.959Z,96061.00
2023-12-28T07:57:59.030Z,96053.66
2023-12-28T08:00:45.889Z,96058.28
2023-12-28T08:03:33.757Z,96057.91
2023-12-28T08:06:26.360Z,96062.28
2023-12-28T08:09:14.567Z,96063.75
2023-12-28T08:12:02.866Z,96057.50
2023-12-28T08:14:54.727Z,96051.78
2023-12-28T08:17:44.184Z,96059.91
2023-12-28T08:20:40.127Z,96057.28
2023-12-28T08:23:46.025Z,96055.22
2023-12-28T08:26:37.985Z,96051.22
2023-12-28T08:29:27.176Z,96048.28
2023-12-28T08:32:13.918Z,96038.09
2023-12-28T08:35:04.610Z,96034.13
2023-12-28T08:37:56.073Z,96040.34
2023-12-28T08:40:43.097Z,96039.25
2023-12-28T08:43:33.855Z,96041.63
2023-12-28T08:46:23.365Z,96032.59
2023-12-28T08:49:10.808Z,96023.53
2023-12-28T08:51:57.499Z,96025.69
2023-12-28T08:54:44.386Z,96024.94
2023-12-28T08:57:40.305Z,96011.66
2023-12-28T09:00:31.761Z,96004.69
2023-12-28T09:03:17.861Z,96005.16
2023-12-28T09:06:06.754Z,96005.63
2023-12-28T09:08:55.354Z,96002.91
2023-12-28T09:11:45.705Z,96008.47
2023-12-28T09:14:36.355Z,96004.22
2023-12-28T09:17:29.351Z,96007.84
2023-12-28T09:20:19.978Z,95997.88
2023-12-28T09:23:04.620Z,96000.66
2023-12-28T09:25:52.618Z,95990.84
2023-12-28T09:28:44.604Z,95992.03
2023-12-28T09:31:36.127Z,95976.53
2023-12-28T09:34:27.770Z,95981.13
2023-12-28T09:37:14.516Z,95975.84
2023-12-28T09:40:01.838Z,95973.66
2023-12-28T09:43:10.072Z,95971.94
2023-12-28T09:46:00.954Z,95967.09
2023-12-28T09:48:48.988Z,95967.09
2023-12-28T09:51:34.673Z,95957.06
2023-12-28T09:54:22.195Z,95947.88
2023-12-28T09:57:07.409Z,95950.38
2023-12-28T09:59:54.528Z,95949.31
2023-12-28T10:02:49.358Z,95939.69
2023-12-28T10:05:33.939Z,95937.84
2023-12-28T10:08:23.088Z,95923.34
2023-12-28T10:11:07.941Z,95907.41
2023-12-28T10:13:57.497Z,95906.69
2023-12-28T10:16:47.530Z,95912.97
2023-12-28T10:19:36.849Z,95900.81
2023-12-28T10:22:27.778Z,95890.75
2023-12-28T10:25:17.221Z,95893.16
2023-12-28T10:28:10.077Z,95875.63
2023-12-28T10:31:02.053Z,95876.22
2023-12-28T10:33:52.481Z,95870.16
2023-12-28T10:36:41.978Z,95863.81
2023-12-28T10:39:36.128Z,95861.94
2023-12-28T10:42:34.571Z,95849.09
2023-12-28T10:45:30.618Z,95836.19
2023-12-28T10:48:17.078Z,95826.44
2023-12-28T10:51:09.913Z,95826.88
2023-12-28T10:54:11.797Z,95806.28
2023-12-28T10:57:08.133Z,95813.69
2023-12-28T11:00:04.479Z,95802.81
2023-12-28T11:02:57.631Z,95798.13
2023-12-28T11:05:49.632Z,95801.38
2023-12-28T11:08:40.568Z,95791.50
2023-12-28T11:11:30.998Z,95792.84
2023-12-28T11:14:19.021Z,95789.34
2023-12-28T11:17:04.662Z,95782.63
2023-12-28T11:19:53.127Z,95781.50
2023-12-28T11:22:46.820Z,95772.56
2023-12-28T11:25:35.495Z,95759.72
2023-12-28T11:28:24.553Z,95764.97
2023-12-28T11:31:16.797Z,95757.97
2023-12-28T11:42:06.200Z,95742.91
2023-12-28T11:44:56.476Z,95746.06
2023-12-28T11:47:40.069Z,95744.53
2023-12-28T11:50:23.479Z,95736.28
2023-12-28T11:53:07.049Z,95739.84
2023-12-28T11:55:50.145Z,95741.22
2023-12-28T11:58:34.228Z,95738.63
2023-12-28T12:01:19.108Z,95739.25
2023-12-28T12:04:02.419Z,95729.19
2023-12-28T12:06:47.376Z,95723.00
2023-12-28T12:09:33.622Z,95726.59
2023-12-28T12:12:19.315Z,95728.25
2023-12-28T12:15:03.287Z,95723.47
2023-12-28T12:17:48.901Z,95715.81
2023-12-28T12:20:32.479Z,95711.88
2023-12-28T12:23:15.791Z,95711.78
2023-12-28T12:25:59.141Z,95713.69
2023-12-28T12:28:44.555Z,95716.97
2023-12-28T12:31:28.652Z,95718.84
2023-12-28T12:34:13.878Z,95718.56
2023-12-28T12:36:59.677Z,95711.44
2023-12-28T12:39:43.012Z,95708.69
2023-12-28T12:42:26.354Z,95710.25
2023-12-28T12:45:10.192Z,95722.72
2023-12-28T12:47:54.380Z,95712.63
2023-12-28T12:50:39.162Z,95719.69
2023-12-28T12:53:22.226Z,95720.50
2023-12-28T12:56:06.442Z,95708.78
2023-12-28T12:58:49.698Z,95707.41
2023-12-28T13:01:32.915Z,95713.88
2023-12-28T13:04:17.222Z,95715.66
2023-12-28T13:07:02.080Z,95710.88
2023-12-28T13:09:45.226Z,95704.06
2023-12-28T13:12:30.906Z,95707.91
2023-12-28T13:15:14.078Z,95698.25
2023-12-28T13:17:57.260Z,95695.16
2023-12-28T13:20:40.385Z,95702.22
2023-12-28T13:23:24.975Z,95693.84
2023-12-28T13:26:08.159Z,95700.69
2023-12-28T13:28:51.283Z,95699.94
2023-12-28T13:31:34.458Z,95700.78
2023-12-28T13:34:17.744Z,95698.75
2023-12-28T13:37:02.572Z,95697.59
2023-12-28T13:39:48.501Z,95698.00
2023-12-28T13:42:31.682Z,95698.00
2023-12-28T13:45:14.973Z,95696.84
2023-12-28T13:47:58.594Z,95691.22
2023-12-28T13:50:41.716Z,95692.81
2023-12-28T13:53:26.282Z,95690.03
2023-12-28T13:56:13.436Z,95703.03
2023-12-28T13:58:56.528Z,95690.84
2023-12-28T14:01:44.407Z,95692.09
2023-12-28T14:04:29.609Z,95694.47
2023-12-28T14:07:15.525Z,95700.50
2023-12-28T14:09:58.692Z,95699.34
2023-12-28T14:12:46.278Z,95700.97
2023-12-28T14:15:29.676Z,95687.78
2023-12-28T14:18:12.830Z,95692.59
2023-12-28T14:20:56.203Z,95687.41
2023-12-28T14:23:40.261Z,95681.41
2023-12-28T14:26:24.893Z,95681.63
2023-12-28T14:29:09.944Z,95680.63
2023-12-28T14:31:54.042Z,95687.00
2023-12-28T14:34:37.769Z,95675.81
2023-12-28T14:37:20.947Z,95673.44
2023-12-28T14:40:07.597Z,95666.59
2023-12-28T14:42:50.955Z,95673.41
2023-12-28T14:45:35.552Z,95668.22
2023-12-28T14:48:18.768Z,95667.59
2023-12-28T14:51:02.016Z,95666.56
2023-12-28T14:53:45.380Z,95673.34
2023-12-28T14:56:36.265Z,95670.50
2023-12-28T14:59:24.211Z,95664.91
2023-12-28T15:02:08.881Z,95667.25
2023-12-28T15:04:52.272Z,95668.84
2023-12-28T15:07:35.510Z,95667.84
2023-12-28T15:10:19.975Z,95671.59
2023-12-28T15:13:03.688Z,95668.59
2023-12-28T15:15:48.242Z,95673.50
2023-12-28T15:18:42.938Z,95672.66
2023-12-28T15:21:26.838Z,95676.00
2023-12-28T15:24:10.746Z,95672.63
2023-12-28T15:26:53.899Z,95674.81
2023-12-28T15:29:37.091Z,95670.97
2023-12-28T15:32:20.547Z,95677.03
2023-12-28T15:35:07.636Z,95670.72
2023-12-28T15:37:52.242Z,95679.09
2023-12-28T15:40:35.444Z,95673.91
2023-12-28T15:43:19.515Z,95671.97
2023-12-28T15:46:03.035Z,95670.09
2023-12-28T15:48:46.913Z,95663.25
2023-12-28T15:51:31.532Z,95672.06
2023-12-28T15:54:14.751Z,95664.31
2023-12-28T15:56:58.372Z,95674.97
2023-12-28T15:59:41.477Z,95663.06
2023-12-28T16:02:24.583Z,95679.38
2023-12-28T16:05:08.809Z,95677.47
2023-12-28T16:07:53.351Z,95677.88
2023-12-28T16:10:36.474Z,95671.28
2023-12-28T16:13:19.562Z,95671.13
2023-12-28T16:16:03.325Z,95683.97
2023-12-28T16:18:47.259Z,95679.31
2023-12-28T16:21:32.281Z,95679.09
2023-12-28T16:24:16.872Z,95689.03
2023-12-28T16:27:00.249Z,95693.47
2023-12-28T16:29:43.499Z,95697.22
2023-12-28T16:32:26.695Z,95701.03
2023-12-28T16:35:10.290Z,95704.34
2023-12-28T16:37:53.460Z,95694.91
2023-12-28T16:40:37.968Z,95694.84
2023-12-28T16:43:21.142Z,95685.28
2023-12-28T16:46:04.344Z,95699.59
2023-12-28T16:48:47.896Z,95695.72
2023-12-28T16:51:31.126Z,95700.78
2023-12-28T16:54:15.071Z,95699.69
2023-12-28T16:57:00.186Z,95704.66
2023-12-28T16:59:47.562Z,95704.19
2023-12-28T17:02:33.403Z,95713.34
2023-12-28T17:05:18.103Z,95709.81
2023-12-28T17:08:01.933Z,95707.97
2023-12-28T17:10:45.733Z,95709.81
2023-12-28T17:13:31.170Z,95718.53
2023-12-28T17:16:15.131Z,95729.47
2023-12-28T17:18:58.805Z,95721.75
2023-12-28T17:21:46.443Z,95725.56
2023-12-28T17:24:38.304Z,95725.28
2023-12-28T17:27:30.364Z,95729.88
2023-12-28T17:30:17.780Z,95732.63
2023-12-28T17:33:04.024Z,95726.34
2023-12-28T17:35:47.861Z,95726.66
2023-12-28T17:38:31.385Z,95726.13
2023-12-28T17:41:19.110Z,95728.28
2023-12-28T17:44:08.515Z,95720.97
2023-12-28T17:46:58.404Z,95725.88
2023-12-28T17:49:48.951Z,95727.56
2023-12-28T17:52:34.627Z,95712.94
2023-12-28T17:55:17.980Z,95713.41
2023-12-28T17:58:01.849Z,95705.69
2023-12-28T18:00:45.181Z,95702.47
2023-12-28T18:03:30.008Z,95708.44
2023-12-28T18:06:13.262Z,95704.13
2023-12-28T18:08:56.334Z,95708.59
2023-12-28T18:11:39.503Z,95707.56
2023-12-28T18:14:24.584Z,95703.81
2023-12-28T18:17:08.232Z,95706.88
2023-12-28T18:19:52.939Z,95703.22
2023-12-28T18:22:36.505Z,95706.88
2023-12-28T18:25:19.678Z,95698.22
2023-12-28T18:28:05.184Z,95703.56
2023-12-28T18:30:48.452Z,95695.19
2023-12-28T18:33:31.723Z,95689.13
2023-12-28T18:36:19.241Z,95685.00
2023-12-28T18:39:02.389Z,95683.50
2023-12-28T18:41:45.521Z,95684.59
2023-12-28T18:44:34.313Z,95677.56
2023-12-28T18:47:17.944Z,95674.00
2023-12-28T18:50:01.264Z,95681.28
2023-12-28T18:52:45.892Z,95672.75
2023-12-28T18:55:28.926Z,95673.38
2023-12-28T18:58:12.181Z,95676.59
2023-12-28T19:00:55.410Z,95670.88
2023-12-28T19:03:46.785Z,95659.81
2023-12-28T19:06:31.294Z,95665.00
2023-12-28T19:09:15.849Z,95665.19
2023-12-28T19:11:58.974Z,95664.75
2023-12-28T19:14:42.294Z,95658.81
2023-12-28T19:17:25.428Z,95662.97
2023-12-28T19:20:09.952Z,95671.00
2023-12-28T19:22:53.159Z,95668.13
2023-12-28T19:25:37.692Z,95675.03
2023-12-28T19:28:20.895Z,95682.41
2023-12-28T19:31:04.110Z,95687.25
2023-12-28T19:33:47.380Z,95688.06
2023-12-28T19:36:30.592Z,95698.31
2023-12-28T19:39:13.897Z,95690.63
2023-12-28T19:41:58.348Z,95695.75
2023-12-28T19:44:41.441Z,95696.22
2023-12-28T19:47:25.184Z,95696.09
2023-12-28T19:50:09.670Z,95694.16
2023-12-28T19:52:52.763Z,95703.78
2023-12-28T19:55:35.925Z,95691.91
2023-12-28T19:58:20.758Z,95681.78
2023-12-28T20:01:04.001Z,95694.47
2023-12-28T20:03:47.231Z,95692.56
2023-12-28T20:06:30.518Z,95695.13
2023-12-28T20:09:14.336Z,95684.31
2023-12-28T20:11:57.449Z,95681.44
2023-12-28T20:14:42.074Z,95691.88
2023-12-28T20:17:25.261Z,95677.91
2023-12-28T20:20:10.470Z,95679.34
2023-12-28T20:22:53.695Z,95676.41
2023-12-28T20:25:38.288Z,95670.59
2023-12-28T20:28:21.500Z,95683.63
2023-12-28T20:31:07.035Z,95671.06
2023-12-28T20:33:51.298Z,95672.91
2023-12-28T20:36:34.521Z,95673.69
2023-12-28T20:39:17.602Z,95673.09
2023-12-28T20:42:00.726Z,95683.41
2023-12-28T20:44:43.789Z,95681.16
2023-12-28T20:47:29.007Z,95683.06
2023-12-28T20:50:12.566Z,95688.03
2023-12-28T20:52:55.673Z,95677.09
2023-12-28T20:55:38.884Z,95672.81
2023-12-28T20:58:22.008Z,95668.25
2023-12-28T21:01:05.972Z,95663.41
2023-12-28T21:03:50.775Z,95665.34
2023-12-28T21:06:33.953Z,95667.44
2023-12-28T21:09:17.126Z,95662.22
2023-12-28T21:12:02.877Z,95658.34
2023-12-28T21:14:46.442Z,95657.13
2023-12-28T21:17:30.355Z,95665.81
2023-12-28T21:20:15.180Z,95657.63
2023-12-28T21:22:58.407Z,95657.91
2023-12-28T21:25:41.566Z,95654.22
2023-12-28T21:28:24.680Z,95652.63
2023-12-28T21:31:08.326Z,95646.88
2023-12-28T21:33:51.850Z,95643.69
2023-12-28T21:36:36.823Z,95648.84
2023-12-28T21:39:20.574Z,95640.81
2023-12-28T21:42:06.729Z,95643.06
2023-12-28T21:44:49.820Z,95643.88
2023-12-28T21:47:33.027Z,95646.94
2023-12-28T21:50:16.345Z,95645.66
2023-12-28T21:53:00.847Z,95645.63
2023-12-28T21:55:43.942Z,95647.19
2023-12-28T21:58:27.120Z,95635.31
2023-12-28T22:01:10.477Z,95642.97
2023-12-28T22:03:53.702Z,95635.91
2023-12-28T22:06:36.826Z,95636.53
2023-12-28T22:09:21.714Z,95644.81
2023-12-28T22:12:05.640Z,95649.41
2023-12-28T22:14:48.743Z,95648.13
2023-12-28T22:17:31.867Z,95642.91
2023-12-28T22:20:15.558Z,95643.44
2023-12-28T22:22:58.728Z,95655.25
2023-12-28T22:25:43.352Z,95649.63
2023-12-28T22:28:26.423Z,95651.47
2023-12-28T22:31:09.581Z,95642.38
2023-12-28T22:33:53.301Z,95643.94
2023-12-28T22:36:36.692Z,95640.66
2023-12-28T22:39:19.787Z,95645.13
2023-12-28T22:42:04.273Z,95636.78
2023-12-28T22:44:47.506Z,95636.06
2023-12-28T22:47:30.942Z,95635.81
2023-12-28T22:50:14.226Z,95637.88
2023-12-28T22:52:57.334Z,95630.91
2023-12-28T22:55:40.686Z,95631.50
2023-12-28T22:58:25.197Z,95641.38
2023-12-28T23:01:09.833Z,95638.56
2023-12-28T23:03:53.065Z,95623.28
2023-12-28T23:06:36.231Z,95629.66
2023-12-28T23:09:19.405Z,95628.03
2023-12-28T23:12:02.478Z,95622.03
2023-12-28T23:14:46.944Z,95621.81
2023-12-28T23:17:30.062Z,95613.38
2023-12-28T23:20:13.795Z,95610.47
2023-12-28T23:22:57.897Z,95606.19
2023-12-28T23:25:41.021Z,95605.38
2023-12-28T23:28:24.113Z,95597.38
2023-12-28T23:31:08.977Z,95595.16
2023-12-28T23:33:52.829Z,95598.53
2023-12-28T23:36:38.340Z,95593.22
2023-12-28T23:39:21.480Z,95586.47
2023-12-28T23:42:06.012Z,95578.78
2023-12-28T23:44:49.377Z,95575.44
2023-12-28T23:47:33.849Z,95571.72
2023-12-28T23:50:17.068Z,95577.44
2023-12-28T23:53:00.249Z,95569.72
2023-12-28T23:55:43.347Z,95563.53
2023-12-28T23:58:26.415Z,95568.56
